createdAt,value
2023-05-24T00:00:28.881Z,2.00
2023-05-24T00:02:57.714Z,1.35
2023-05-24T00:05:25.280Z,1.63
2023-05-24T00:07:52.625Z,1.50
2023-05-24T00:10:20.065Z,1.40
2023-05-24T00:12:47.411Z,1.50
2023-05-24T00:15:14.722Z,1.95
2023-05-24T00:17:42.824Z,1.75
2023-05-24T00:20:14.328Z,1.35
2023-05-24T00:22:42.261Z,1.52
2023-05-24T00:25:10.144Z,1.40
2023-05-24T00:27:37.593Z,1.55
2023-05-24T00:30:06.289Z,2.05
2023-05-24T00:32:33.659Z,1.70
2023-05-24T00:35:01.101Z,2.08
2023-05-24T00:37:29.555Z,1.70
2023-05-24T00:39:56.988Z,1.70
2023-05-24T00:42:24.368Z,1.90
2023-05-24T00:44:51.824Z,1.50
2023-05-24T00:47:19.296Z,1.70
2023-05-24T00:49:46.975Z,1.85
2023-05-24T00:52:14.512Z,1.70
2023-05-24T00:54:42.018Z,1.90
2023-05-24T00:57:09.612Z,2.00
2023-05-24T00:59:37.109Z,2.00
2023-05-24T01:02:04.567Z,1.80
2023-05-24T01:04:35.742Z,1.50
2023-05-24T01:07:13.021Z,1.77
2023-05-24T01:10:36.260Z,1.60
2023-05-24T01:13:31.721Z,2.15
2023-05-24T01:16:08.263Z,1.55
2023-05-24T01:18:57.630Z,1.92
2023-05-24T01:21:59.924Z,2.00
2023-05-24T01:25:08.051Z,1.92
2023-05-24T01:27:38.274Z,1.63
2023-05-24T01:30:07.310Z,1.60
2023-05-24T01:32:34.986Z,1.40
2023-05-24T01:35:02.319Z,1.83
2023-05-24T01:37:29.628Z,1.48
2023-05-24T01:39:57.070Z,2.03
2023-05-24T01:42:33.558Z,1.83
2023-05-24T01:45:07.507Z,1.70
2023-05-24T01:47:56.319Z,1.55
2023-05-24T01:50:32.907Z,1.92
2023-05-24T01:53:07.060Z,1.60
2023-05-24T01:55:37.293Z,1.90
2023-05-24T01:58:07.968Z,2.10
2023-05-24T02:00:35.757Z,1.88
2023-05-24T02:03:03.884Z,1.58
2023-05-24T02:05:33.605Z,2.15
2023-05-24T02:08:01.242Z,1.85
2023-05-24T02:10:28.593Z,1.80
2023-05-24T02:12:55.959Z,1.70
2023-05-24T02:15:23.493Z,2.63
2023-05-24T02:17:50.817Z,1.70
2023-05-24T02:20:18.314Z,2.10
2023-05-24T02:22:45.664Z,2.20
2023-05-24T02:25:13.036Z,1.65
2023-05-24T02:27:41.866Z,1.85
2023-05-24T02:30:09.690Z,1.80
2023-05-24T02:32:37.143Z,1.48
2023-05-24T02:35:04.713Z,2.08
2023-05-24T02:37:32.056Z,1.58
2023-05-24T02:39:59.363Z,1.80
2023-05-24T02:42:26.628Z,1.80
2023-05-24T02:44:53.934Z,1.70
2023-05-24T02:47:21.382Z,2.00
2023-05-24T02:49:48.753Z,1.92
2023-05-24T02:52:21.494Z,2.10
2023-05-24T02:54:49.344Z,1.80
2023-05-24T02:57:16.737Z,2.00
2023-05-24T02:59:44.142Z,1.95
2023-05-24T03:02:13.757Z,1.63
2023-05-24T03:04:41.223Z,2.08
2023-05-24T03:07:08.516Z,1.70
2023-05-24T03:09:35.799Z,1.70
2023-05-24T03:12:03.145Z,1.70
2023-05-24T03:14:30.447Z,2.00
2023-05-24T03:16:57.791Z,1.75
2023-05-24T03:19:25.305Z,1.80
2023-05-24T03:21:52.637Z,2.03
2023-05-24T03:24:20.982Z,1.92
2023-05-24T03:26:48.325Z,2.00
2023-05-24T03:29:15.621Z,1.77
2023-05-24T03:31:43.078Z,1.90
2023-05-24T03:34:10.554Z,2.25
2023-05-24T03:36:37.953Z,1.65
2023-05-24T03:39:05.372Z,1.90
2023-05-24T03:41:32.723Z,2.00
2023-05-24T03:44:01.055Z,1.58
2023-05-24T03:46:28.559Z,1.80
2023-05-24T03:48:55.941Z,2.05
2023-05-24T03:51:29.702Z,1.80
2023-05-24T03:53:57.731Z,1.70
2023-05-24T03:56:26.704Z,1.83
2023-05-24T03:58:54.499Z,1.90
2023-05-24T04:01:32.534Z,1.60
2023-05-24T04:04:02.096Z,1.75
2023-05-24T04:06:30.311Z,1.58
2023-05-24T04:08:59.336Z,1.42
2023-05-24T04:11:29.847Z,1.90
2023-05-24T04:14:00.533Z,1.63
2023-05-24T04:16:28.511Z,1.60
2023-05-24T04:18:57.069Z,1.73
2023-05-24T04:21:24.842Z,1.70
2023-05-24T04:23:52.327Z,1.80
2023-05-24T04:26:21.227Z,1.67
2023-05-24T04:28:48.775Z,1.70
2023-05-24T04:31:16.564Z,1.60
2023-05-24T04:33:44.041Z,1.70
2023-05-24T04:36:12.089Z,1.50
2023-05-24T04:38:40.903Z,1.63
2023-05-24T04:41:08.488Z,1.95
2023-05-24T04:43:35.788Z,1.80
2023-05-24T04:46:03.133Z,1.70
2023-05-24T04:48:30.497Z,1.80
2023-05-24T04:50:58.759Z,1.73
2023-05-24T04:53:26.425Z,1.73
2023-05-24T04:55:54.135Z,1.73
2023-05-24T04:58:21.686Z,1.80
2023-05-24T05:00:49.090Z,1.60
2023-05-24T05:03:16.567Z,1.60
2023-05-24T05:05:46.643Z,1.40
2023-05-24T05:08:14.112Z,1.30
2023-05-24T05:10:41.636Z,1.80
2023-05-24T05:13:09.159Z,1.55
2023-05-24T05:15:36.557Z,1.90
2023-05-24T05:18:03.967Z,1.60
2023-05-24T05:20:31.422Z,2.15
2023-05-24T05:22:58.881Z,1.75
2023-05-24T05:25:26.271Z,1.75
2023-05-24T05:27:53.532Z,1.58
2023-05-24T05:30:21.121Z,1.90
2023-05-24T05:32:48.522Z,2.20
2023-05-24T05:35:16.139Z,1.70
2023-05-24T05:37:43.526Z,1.92
2023-05-24T05:40:11.351Z,1.77
2023-05-24T05:42:38.683Z,1.42
2023-05-24T05:45:06.550Z,1.55
2023-05-24T05:47:33.994Z,1.60
2023-05-24T05:50:01.470Z,1.67
2023-05-24T05:52:28.808Z,1.45
2023-05-24T05:54:56.251Z,1.60
2023-05-24T05:57:24.376Z,1.63
2023-05-24T05:59:52.082Z,1.88
2023-05-24T06:02:19.835Z,1.63
2023-05-24T06:04:47.909Z,1.80
2023-05-24T06:07:15.447Z,1.55
2023-05-24T06:09:42.757Z,1.92
2023-05-24T06:12:10.117Z,1.63
2023-05-24T06:14:38.593Z,1.42
2023-05-24T06:17:06.732Z,1.88
2023-05-24T06:19:34.136Z,1.90
2023-05-24T06:22:01.730Z,2.17
2023-05-24T06:24:29.133Z,1.80
2023-05-24T06:26:56.695Z,1.50
2023-05-24T06:29:25.308Z,1.58
2023-05-24T06:31:53.148Z,1.50
2023-05-24T06:34:21.571Z,1.90
2023-05-24T06:36:51.060Z,1.70
2023-05-24T06:39:19.037Z,1.83
2023-05-24T06:41:47.263Z,1.42
2023-05-24T06:44:14.957Z,1.65
2023-05-24T06:46:42.498Z,1.80
2023-05-24T06:49:09.933Z,1.73
2023-05-24T06:51:38.134Z,1.70
2023-05-24T06:54:05.765Z,1.65
2023-05-24T06:56:33.232Z,1.92
2023-05-24T06:59:00.644Z,1.92
2023-05-24T07:01:29.207Z,1.50
2023-05-24T07:03:56.612Z,1.48
2023-05-24T07:06:25.103Z,1.73
2023-05-24T07:08:52.423Z,1.70
2023-05-24T07:11:19.928Z,1.83
2023-05-24T07:13:47.276Z,2.15
2023-05-24T07:16:14.643Z,1.80
2023-05-24T07:18:42.192Z,1.90
2023-05-24T07:21:09.602Z,1.48
2023-05-24T07:23:37.488Z,1.80
2023-05-24T07:26:05.439Z,1.70
2023-05-24T07:28:33.073Z,1.85
2023-05-24T07:31:00.492Z,1.70
2023-05-24T07:33:28.181Z,2.03
2023-05-24T07:35:55.527Z,2.00
2023-05-24T07:38:22.820Z,1.95
2023-05-24T07:40:50.247Z,2.10
2023-05-24T07:43:17.597Z,1.90
2023-05-24T07:45:45.063Z,2.08
2023-05-24T07:48:12.564Z,2.03
2023-05-24T07:50:40.230Z,1.73
2023-05-24T07:53:07.667Z,1.80
2023-05-24T07:55:35.786Z,1.70
2023-05-24T07:58:03.078Z,2.10
2023-05-24T08:00:30.489Z,1.73
2023-05-24T08:02:57.928Z,1.63
2023-05-24T08:05:25.713Z,1.77
2023-05-24T08:07:53.661Z,1.85
2023-05-24T08:10:21.818Z,1.90
2023-05-24T08:12:51.588Z,1.77
2023-05-24T08:15:18.940Z,1.70
2023-05-24T08:17:46.346Z,2.08
2023-05-24T08:20:14.680Z,1.85
2023-05-24T08:22:42.960Z,2.00
2023-05-24T08:25:11.744Z,1.85
2023-05-24T08:27:39.189Z,2.15
2023-05-24T08:30:08.426Z,1.90
2023-05-24T08:32:36.445Z,1.90
2023-05-24T08:35:19.330Z,1.90
2023-05-24T08:37:49.160Z,1.60
2023-05-24T08:40:17.022Z,1.80
2023-05-24T08:42:46.653Z,1.70
2023-05-24T08:45:15.882Z,1.85
2023-05-24T08:47:43.797Z,1.65
2023-05-24T08:50:11.498Z,1.67
2023-05-24T08:52:40.311Z,1.50
2023-05-24T08:55:08.763Z,1.48
2023-05-24T08:57:41.517Z,1.50
2023-05-24T09:00:11.897Z,1.70
2023-05-24T09:02:42.055Z,1.70
2023-05-24T09:05:12.132Z,1.63
2023-05-24T09:07:40.461Z,1.90
2023-05-24T09:10:09.367Z,1.50
2023-05-24T09:12:39.497Z,1.38
2023-05-24T09:15:09.005Z,1.70
2023-05-24T09:17:38.088Z,1.60
2023-05-24T09:20:08.934Z,1.50
2023-05-24T09:22:40.695Z,1.75
2023-05-24T09:25:11.202Z,1.60
2023-05-24T09:27:38.919Z,1.75
2023-05-24T09:30:13.062Z,1.70
2023-05-24T09:32:41.271Z,1.52
2023-05-24T09:35:10.352Z,1.58
2023-05-24T09:37:41.390Z,1.52
2023-05-24T09:40:19.934Z,1.60
2023-05-24T09:42:51.391Z,1.88
2023-05-24T09:45:19.029Z,1.40
2023-05-24T09:47:46.543Z,1.60
2023-05-24T09:50:16.058Z,1.38
2023-05-24T09:52:44.751Z,1.65
2023-05-24T09:55:15.649Z,1.70
2023-05-24T09:57:45.538Z,1.60
2023-05-24T10:00:16.742Z,1.55
2023-05-24T10:02:53.317Z,1.33
2023-05-24T10:05:23.339Z,1.60
2023-05-24T10:07:51.054Z,1.40
2023-05-24T10:10:18.603Z,1.45
2023-05-24T10:12:47.146Z,1.38
2023-05-24T10:15:14.675Z,1.38
2023-05-24T10:17:42.024Z,1.35
2023-05-24T10:20:12.339Z,1.40
2023-05-24T10:22:45.570Z,1.35
2023-05-24T10:25:21.797Z,1.40
2023-05-24T10:27:51.648Z,1.60
2023-05-24T10:30:37.831Z,1.50
2023-05-24T10:33:08.238Z,1.30
2023-05-24T10:35:38.217Z,1.45
2023-05-24T10:38:09.137Z,1.23
2023-05-24T10:40:41.261Z,1.25
2023-05-24T10:43:09.097Z,1.55
2023-05-24T10:45:41.412Z,1.35
2023-05-24T10:48:15.516Z,1.33
2023-05-24T10:50:44.092Z,1.50
2023-05-24T10:53:15.026Z,1.80
2023-05-24T10:56:09.865Z,1.60
2023-05-24T10:59:00.004Z,1.60
2023-05-24T11:01:29.514Z,1.60
2023-05-24T11:04:15.808Z,1.50
2023-05-24T11:06:54.200Z,1.70
2023-05-24T11:09:22.492Z,1.67
2023-05-24T11:11:54.532Z,1.45
2023-05-24T11:14:29.502Z,1.45
2023-05-24T11:16:58.141Z,1.38
2023-05-24T11:19:37.383Z,1.40
2023-05-24T11:22:09.060Z,1.40
2023-05-24T11:24:37.024Z,1.60
2023-05-24T11:27:04.709Z,1.67
2023-05-24T11:29:32.465Z,1.35
2023-05-24T11:32:07.947Z,1.50
2023-05-24T11:34:35.758Z,1.40
2023-05-24T11:37:06.144Z,1.30
2023-05-24T11:39:37.724Z,1.30
2023-05-24T11:42:06.701Z,1.63
2023-05-24T11:44:38.012Z,1.30
2023-05-24T11:47:07.756Z,1.25
2023-05-24T11:49:35.917Z,1.40
2023-05-24T11:52:03.872Z,1.50
2023-05-24T11:54:35.183Z,1.30
2023-05-24T11:57:03.508Z,1.23
2023-05-24T11:59:31.070Z,1.40
2023-05-24T12:02:00.487Z,1.30
2023-05-24T12:04:29.803Z,1.30
2023-05-24T12:06:58.250Z,1.40
2023-05-24T12:09:26.259Z,1.30
2023-05-24T12:11:54.528Z,1.65
2023-05-24T12:14:31.283Z,1.23
2023-05-24T12:16:59.656Z,1.20
2023-05-24T12:19:37.390Z,1.30
2023-05-24T12:22:07.278Z,1.63
2023-05-24T12:24:35.421Z,1.35
2023-05-24T12:27:08.432Z,1.15
2023-05-24T12:29:38.681Z,1.08
2023-05-24T12:32:12.321Z,1.15
2023-05-24T12:34:44.433Z,1.30
2023-05-24T12:37:13.855Z,1.27
2023-05-24T12:39:43.348Z,1.20
2023-05-24T12:42:13.453Z,1.38
2023-05-24T12:44:42.009Z,1.20
2023-05-24T12:47:11.862Z,1.20
2023-05-24T12:49:39.552Z,1.40
2023-05-24T12:52:07.287Z,1.05
2023-05-24T12:54:35.188Z,1.45
2023-05-24T12:57:03.192Z,1.13
2023-05-24T12:59:31.089Z,1.20
2023-05-24T13:01:59.060Z,1.10
2023-05-24T13:04:27.635Z,1.05
2023-05-24T13:06:55.767Z,1.20
2023-05-24T13:09:24.116Z,0.90
2023-05-24T13:11:52.675Z,1.08
2023-05-24T13:14:20.737Z,1.10
2023-05-24T13:16:48.702Z,1.08
2023-05-24T13:19:17.342Z,1.08
2023-05-24T13:21:45.137Z,1.33
2023-05-24T13:24:16.155Z,1.20
2023-05-24T13:26:44.282Z,1.17
2023-05-24T13:31:43.051Z,1.00
2023-05-24T13:34:11.471Z,0.85
2023-05-24T13:36:39.191Z,1.10
2023-05-24T13:41:40.465Z,1.10
2023-05-24T13:44:08.787Z,1.13
2023-05-24T13:46:36.554Z,1.30
2023-05-24T13:49:05.050Z,0.95
2023-05-24T13:51:33.379Z,0.90
2023-05-24T13:54:01.221Z,1.35
2023-05-24T13:56:33.332Z,1.20
2023-05-24T13:59:04.863Z,1.20
2023-05-24T14:01:33.400Z,1.15
2023-05-24T14:04:02.740Z,1.17
2023-05-24T14:06:31.162Z,1.30
2023-05-24T14:08:59.672Z,1.38
2023-05-24T14:11:31.744Z,1.20
2023-05-24T14:16:30.712Z,1.10
2023-05-24T14:18:58.363Z,1.13
2023-05-24T14:21:27.687Z,1.17
2023-05-24T14:23:55.538Z,1.17
2023-05-24T14:26:23.837Z,1.42
2023-05-24T14:28:54.452Z,1.10
2023-05-24T14:31:23.973Z,0.98
2023-05-24T14:33:51.390Z,0.90
2023-05-24T14:36:19.242Z,1.20
2023-05-24T14:38:46.964Z,1.40
2023-05-24T14:41:15.600Z,1.10
2023-05-24T14:43:43.153Z,1.08
2023-05-24T14:46:11.448Z,1.10
2023-05-24T14:48:42.550Z,1.30
2023-05-24T14:51:10.118Z,1.30
2023-05-24T14:53:37.757Z,1.42
2023-05-24T14:56:07.563Z,1.20
2023-05-24T14:58:35.060Z,1.48
2023-05-24T15:01:03.127Z,1.17
2023-05-24T15:03:30.667Z,1.00
2023-05-24T15:05:58.714Z,1.20
2023-05-24T15:08:26.396Z,1.15
2023-05-24T15:10:53.826Z,1.10
2023-05-24T15:13:22.997Z,1.15
2023-05-24T15:15:53.289Z,1.25
2023-05-24T15:18:21.138Z,1.33
2023-05-24T15:20:49.089Z,1.05
2023-05-24T15:23:17.253Z,1.40
2023-05-24T15:25:46.596Z,1.38
2023-05-24T15:28:17.414Z,1.42
2023-05-24T15:30:47.985Z,1.35
2023-05-24T15:33:17.256Z,1.50
2023-05-24T15:35:44.988Z,1.45
2023-05-24T15:38:12.767Z,1.20
2023-05-24T15:40:42.644Z,1.35
2023-05-24T15:43:11.093Z,1.30
2023-05-24T15:45:38.595Z,1.17
2023-05-24T15:48:06.102Z,1.20
2023-05-24T15:50:54.086Z,1.30
2023-05-24T15:53:21.927Z,1.30
2023-05-24T15:55:49.892Z,1.23
2023-05-24T15:58:18.674Z,1.30
2023-05-24T16:00:46.182Z,1.30
2023-05-24T16:03:16.067Z,1.33
2023-05-24T16:05:43.650Z,1.40
2023-05-24T16:08:11.035Z,1.60
2023-05-24T16:10:38.509Z,1.75
2023-05-24T16:13:07.016Z,1.67
2023-05-24T16:15:37.253Z,2.05
2023-05-24T16:18:05.353Z,2.20
2023-05-24T16:20:33.560Z,3.35
2023-05-24T16:23:01.143Z,3.55
2023-05-24T16:25:28.667Z,2.90
2023-05-24T16:27:56.539Z,3.10
2023-05-24T16:30:24.102Z,4.32
2023-05-24T16:32:51.593Z,4.78
2023-05-24T16:35:19.430Z,3.95
2023-05-24T16:37:48.332Z,4.10
2023-05-24T16:40:15.920Z,3.63
2023-05-24T16:42:43.705Z,3.90
2023-05-24T16:45:11.536Z,3.58
2023-05-24T16:47:39.755Z,2.88
2023-05-24T16:50:15.434Z,3.15
2023-05-24T16:52:44.181Z,3.33
2023-05-24T16:55:12.853Z,3.00
2023-05-24T16:57:40.552Z,3.63
2023-05-24T17:00:08.779Z,4.10
2023-05-24T17:02:37.588Z,3.97
2023-05-24T17:05:06.220Z,3.85
2023-05-24T17:07:35.115Z,4.70
2023-05-24T17:10:02.697Z,4.93
2023-05-24T17:12:30.326Z,3.80
2023-05-24T17:14:58.056Z,3.67
2023-05-24T17:17:26.224Z,3.28
2023-05-24T17:19:53.941Z,3.80
2023-05-24T17:22:21.975Z,3.47
2023-05-24T17:24:49.735Z,3.47
2023-05-24T17:27:22.061Z,3.42
2023-05-24T17:29:50.144Z,3.60
2023-05-24T17:32:18.982Z,3.05
2023-05-24T17:34:51.107Z,3.33
2023-05-24T17:37:18.443Z,3.03
2023-05-24T17:39:46.002Z,2.92
2023-05-24T17:42:13.458Z,3.38
2023-05-24T17:44:43.486Z,2.75
2023-05-24T17:47:10.968Z,3.20
2023-05-24T17:49:40.020Z,3.40
2023-05-24T17:52:07.427Z,3.13
2023-05-24T17:54:34.842Z,3.10
2023-05-24T17:57:04.114Z,3.03
2023-05-24T17:59:33.558Z,2.65
2023-05-24T18:02:01.301Z,3.38
2023-05-24T18:04:30.530Z,2.58
2023-05-24T18:06:58.430Z,2.53
2023-05-24T18:09:27.716Z,2.67
2023-05-24T18:11:55.391Z,2.42
2023-05-24T18:14:23.240Z,2.53
2023-05-24T18:16:59.259Z,2.50
2023-05-24T18:19:29.250Z,2.28
2023-05-24T18:21:56.786Z,2.40
2023-05-24T18:24:26.572Z,2.30
2023-05-24T18:26:53.932Z,2.45
2023-05-24T18:29:21.618Z,2.20
2023-05-24T18:31:50.020Z,2.38
2023-05-24T18:34:17.933Z,2.15
2023-05-24T18:36:45.328Z,1.75
2023-05-24T18:39:14.132Z,2.28
2023-05-24T18:41:43.354Z,2.67
2023-05-24T18:44:10.903Z,2.10
2023-05-24T18:46:39.094Z,2.38
2023-05-24T18:49:11.042Z,2.70
2023-05-24T18:51:39.359Z,2.00
2023-05-24T18:54:07.824Z,2.40
2023-05-24T18:56:37.159Z,2.10
2023-05-24T18:59:11.757Z,2.10
2023-05-24T19:01:41.928Z,2.00
2023-05-24T19:04:10.010Z,1.70
2023-05-24T19:06:37.777Z,2.35
2023-05-24T19:09:07.253Z,2.10
2023-05-24T19:11:34.839Z,1.88
2023-05-24T19:14:03.560Z,2.13
2023-05-24T19:16:31.162Z,1.83
2023-05-24T19:18:58.591Z,1.83
2023-05-24T19:21:26.153Z,1.80
2023-05-24T19:23:53.841Z,1.80
2023-05-24T19:26:22.653Z,2.00
2023-05-24T19:28:54.045Z,1.83
2023-05-24T19:31:24.953Z,2.00
2023-05-24T19:34:00.396Z,1.85
2023-05-24T19:36:30.913Z,2.05
2023-05-24T19:38:58.561Z,2.47
2023-05-24T19:41:31.361Z,1.98
2023-05-24T19:44:01.634Z,1.75
2023-05-24T19:46:29.517Z,1.90
2023-05-24T19:49:00.151Z,2.20
2023-05-24T19:51:28.733Z,1.95
2023-05-24T19:53:56.122Z,1.88
2023-05-24T19:56:23.804Z,1.90
2023-05-24T19:58:51.443Z,1.90
2023-05-24T20:01:19.224Z,2.08
2023-05-24T20:03:48.767Z,1.75
2023-05-24T20:06:17.126Z,1.98
2023-05-24T20:08:45.743Z,2.03
2023-05-24T20:11:15.541Z,2.28
2023-05-24T20:13:46.344Z,1.90
2023-05-24T20:16:13.987Z,1.95
2023-05-24T20:18:44.613Z,2.20
2023-05-24T20:21:13.251Z,1.80
2023-05-24T20:23:42.903Z,2.00
2023-05-24T20:26:11.351Z,1.90
2023-05-24T20:28:39.636Z,1.80
2023-05-24T20:31:08.452Z,1.70
2023-05-24T20:33:38.391Z,1.90
2023-05-24T20:36:06.725Z,1.73
2023-05-24T20:38:34.295Z,2.72
2023-05-24T20:41:05.579Z,2.10
2023-05-24T20:43:33.301Z,2.22
2023-05-24T20:46:01.786Z,2.20
2023-05-24T20:48:29.553Z,2.30
2023-05-24T20:50:59.732Z,2.00
2023-05-24T20:53:30.057Z,1.88
2023-05-24T20:55:57.462Z,2.00
2023-05-24T20:58:24.900Z,2.10
2023-05-24T21:00:56.559Z,1.98
2023-05-24T21:03:25.726Z,1.88
2023-05-24T21:05:53.304Z,1.92
2023-05-24T21:08:20.837Z,2.10
2023-05-24T21:10:48.926Z,2.22
2023-05-24T21:13:16.664Z,2.08
2023-05-24T21:15:45.480Z,1.50
2023-05-24T21:18:13.653Z,1.90
2023-05-24T21:20:41.174Z,1.88
2023-05-24T21:23:09.196Z,1.77
2023-05-24T21:25:37.083Z,1.73
2023-05-24T21:28:04.877Z,1.85
2023-05-24T21:30:32.470Z,1.77
2023-05-24T21:32:59.934Z,2.20
2023-05-24T21:35:28.010Z,1.65
2023-05-24T21:37:55.488Z,2.10
2023-05-24T21:40:23.138Z,1.92
2023-05-24T21:42:50.608Z,1.98
2023-05-24T21:45:18.212Z,1.80
2023-05-24T21:47:45.704Z,2.00
2023-05-24T21:50:14.336Z,1.80
2023-05-24T21:52:41.765Z,1.85
2023-05-24T21:55:10.131Z,1.70
2023-05-24T21:57:38.045Z,1.70
2023-05-24T22:00:05.927Z,2.00
2023-05-24T22:02:33.436Z,1.90
2023-05-24T22:05:01.346Z,2.05
2023-05-24T22:07:29.064Z,1.70
2023-05-24T22:09:56.659Z,1.75
2023-05-24T22:12:24.109Z,1.73
2023-05-24T22:14:51.679Z,1.60
2023-05-24T22:17:19.414Z,2.08
2023-05-24T22:19:48.205Z,1.75
2023-05-24T22:22:19.786Z,1.70
2023-05-24T22:24:47.346Z,1.90
2023-05-24T22:27:16.962Z,1.77
2023-05-24T22:29:44.473Z,1.85
2023-05-24T22:32:11.909Z,1.45
2023-05-24T22:34:39.445Z,1.52
2023-05-24T22:37:07.036Z,1.85
2023-05-24T22:39:34.488Z,1.40
2023-05-24T22:42:01.830Z,1.40
2023-05-24T22:44:29.122Z,2.13
2023-05-24T22:46:56.508Z,1.63
2023-05-24T22:49:24.534Z,1.80
2023-05-24T22:51:53.413Z,1.90
2023-05-24T22:54:20.749Z,1.63
2023-05-24T22:56:48.222Z,1.80
2023-05-24T22:59:15.646Z,1.88
2023-05-24T23:01:44.726Z,1.63
2023-05-24T23:04:21.355Z,1.80
2023-05-24T23:06:52.344Z,1.73
2023-05-24T23:09:34.054Z,1.52
2023-05-24T23:12:08.270Z,1.65
2023-05-24T23:14:41.466Z,2.03
2023-05-24T23:20:42.661Z,1.90
2023-05-24T23:23:10.141Z,2.25
2023-05-24T23:25:37.748Z,1.65
2023-05-24T23:28:05.174Z,1.73
2023-05-24T23:30:32.510Z,1.80
2023-05-24T23:33:00.233Z,1.65
2023-05-24T23:35:27.639Z,1.55
2023-05-24T23:37:54.989Z,1.70
2023-05-24T23:40:22.494Z,1.55
2023-05-24T23:42:49.898Z,1.83
2023-05-24T23:45:17.320Z,1.58
2023-05-24T23:47:45.682Z,1.60
2023-05-24T23:50:17.291Z,1.60
2023-05-24T23:52:46.343Z,1.58
2023-05-24T23:55:13.689Z,1.90
2023-05-24T23:57:41.992Z,1.60
